sensor_id;sensor_type;location;lat;lon;timestamp;P1;durP1;ratioP1;P2;durP2;ratioP2
1839;SDS011;920;48.944;9.148;2023-08-17T00:01:11;5.20;;;4.70;;
1839;SDS011;920;48.944;9.148;2023-08-17T00:03:38;5.57;;;4.97;;
1839;SDS011;920;48.944;9.148;2023-08-17T00:06:05;5.83;;;5.00;;
1839;SDS011;920;48.944;9.148;2023-08-17T00:08:31;5.67;;;5.00;;
1839;SDS011;920;48.944;9.148;2023-08-17T00:10:58;5.57;;;5.00;;
1839;SDS011;920;48.944;9.148;2023-08-17T00:13:25;6.13;;;5.53;;
1839;SDS011;920;48.944;9.148;2023-08-17T00:15:51;6.63;;;5.10;;
1839;SDS011;920;48.944;9.148;2023-08-17T00:18:19;5.70;;;5.17;;
1839;SDS011;920;48.944;9.148;2023-08-17T00:20:46;5.63;;;5.03;;
1839;SDS011;920;48.944;9.148;2023-08-17T00:23:14;5.70;;;5.10;;
1839;SDS011;920;48.944;9.148;2023-08-17T00:25:40;5.30;;;4.80;;
1839;SDS011;920;48.944;9.148;2023-08-17T00:28:07;5.60;;;5.10;;
1839;SDS011;920;48.944;9.148;2023-08-17T00:30:34;4.97;;;4.47;;
1839;SDS011;920;48.944;9.148;2023-08-17T00:33:04;6.10;;;5.03;;
1839;SDS011;920;48.944;9.148;2023-08-17T00:35:32;5.60;;;4.67;;
1839;SDS011;920;48.944;9.148;2023-08-17T00:37:59;5.07;;;4.67;;
1839;SDS011;920;48.944;9.148;2023-08-17T00:40:25;5.73;;;5.07;;
1839;SDS011;920;48.944;9.148;2023-08-17T00:42:52;5.40;;;4.90;;
1839;SDS011;920;48.944;9.148;2023-08-17T00:45:19;5.60;;;5.10;;
1839;SDS011;920;48.944;9.148;2023-08-17T00:47:46;4.90;;;4.40;;
1839;SDS011;920;48.944;9.148;2023-08-17T00:50:13;5.57;;;4.90;;
1839;SDS011;920;48.944;9.148;2023-08-17T00:52:42;7.30;;;4.90;;
1839;SDS011;920;48.944;9.148;2023-08-17T00:55:10;6.07;;;5.47;;
1839;SDS011;920;48.944;9.148;2023-08-17T00:57:37;6.73;;;5.70;;
1839;SDS011;920;48.944;9.148;2023-08-17T01:00:06;5.30;;;4.80;;
1839;SDS011;920;48.944;9.148;2023-08-17T01:02:34;6.97;;;5.23;;
1839;SDS011;920;48.944;9.148;2023-08-17T01:05:01;5.90;;;5.10;;
1839;SDS011;920;48.944;9.148;2023-08-17T01:07:28;5.40;;;4.90;;
1839;SDS011;920;48.944;9.148;2023-08-17T01:09:56;5.23;;;4.73;;
1839;SDS011;920;48.944;9.148;2023-08-17T01:12:24;4.83;;;4.33;;
1839;SDS011;920;48.944;9.148;2023-08-17T01:14:59;5.00;;;4.50;;
1839;SDS011;920;48.944;9.148;2023-08-17T01:17:31;6.47;;;5.20;;
1839;SDS011;920;48.944;9.148;2023-08-17T01:20:00;4.77;;;4.23;;
1839;SDS011;920;48.944;9.148;2023-08-17T01:22:29;4.80;;;4.33;;
1839;SDS011;920;48.944;9.148;2023-08-17T01:24:59;4.73;;;4.10;;
1839;SDS011;920;48.944;9.148;2023-08-17T01:27:26;4.53;;;3.83;;
1839;SDS011;920;48.944;9.148;2023-08-17T01:30:00;7.13;;;4.50;;
1839;SDS011;920;48.944;9.148;2023-08-17T01:32:32;6.60;;;4.63;;
1839;SDS011;920;48.944;9.148;2023-08-17T01:35:06;6.40;;;5.50;;
1839;SDS011;920;48.944;9.148;2023-08-17T01:37:36;5.90;;;5.30;;
1839;SDS011;920;48.944;9.148;2023-08-17T01:40:06;5.80;;;5.20;;
1839;SDS011;920;48.944;9.148;2023-08-17T01:42:35;4.60;;;4.20;;
1839;SDS011;920;48.944;9.148;2023-08-17T01:45:02;5.40;;;4.70;;
1839;SDS011;920;48.944;9.148;2023-08-17T01:47:29;5.77;;;5.10;;
1839;SDS011;920;48.944;9.148;2023-08-17T01:49:56;5.50;;;5.00;;
1839;SDS011;920;48.944;9.148;2023-08-17T01:52:25;4.97;;;4.50;;
1839;SDS011;920;48.944;9.148;2023-08-17T01:54:53;5.50;;;5.00;;
1839;SDS011;920;48.944;9.148;2023-08-17T01:57:21;5.93;;;5.33;;
1839;SDS011;920;48.944;9.148;2023-08-17T01:59:47;4.13;;;3.60;;
1839;SDS011;920;48.944;9.148;2023-08-17T02:02:15;6.63;;;4.70;;
1839;SDS011;920;48.944;9.148;2023-08-17T02:04:42;4.40;;;4.00;;
1839;SDS011;920;48.944;9.148;2023-08-17T02:07:09;6.10;;;4.40;;
1839;SDS011;920;48.944;9.148;2023-08-17T02:09:36;5.23;;;4.70;;
1839;SDS011;920;48.944;9.148;2023-08-17T02:12:04;7.47;;;4.60;;
1839;SDS011;920;48.944;9.148;2023-08-17T02:14:34;5.40;;;4.23;;
1839;SDS011;920;48.944;9.148;2023-08-17T02:17:01;6.53;;;3.70;;
1839;SDS011;920;48.944;9.148;2023-08-17T02:19:28;6.60;;;4.97;;
1839;SDS011;920;48.944;9.148;2023-08-17T02:21:55;5.20;;;4.23;;
1839;SDS011;920;48.944;9.148;2023-08-17T02:24:21;5.60;;;4.67;;
1839;SDS011;920;48.944;9.148;2023-08-17T02:26:52;5.17;;;4.67;;
1839;SDS011;920;48.944;9.148;2023-08-17T02:29:18;3.67;;;3.10;;
1839;SDS011;920;48.944;9.148;2023-08-17T02:31:46;4.60;;;4.20;;
1839;SDS011;920;48.944;9.148;2023-08-17T02:34:13;4.70;;;4.20;;
1839;SDS011;920;48.944;9.148;2023-08-17T02:36:40;4.53;;;4.13;;
1839;SDS011;920;48.944;9.148;2023-08-17T02:39:07;4.97;;;4.40;;
1839;SDS011;920;48.944;9.148;2023-08-17T02:41:34;5.40;;;4.00;;
1839;SDS011;920;48.944;9.148;2023-08-17T02:44:01;7.90;;;4.27;;
1839;SDS011;920;48.944;9.148;2023-08-17T02:46:27;6.20;;;4.40;;
1839;SDS011;920;48.944;9.148;2023-08-17T02:48:56;4.30;;;3.90;;
1839;SDS011;920;48.944;9.148;2023-08-17T02:51:23;4.23;;;3.60;;
1839;SDS011;920;48.944;9.148;2023-08-17T02:53:49;4.97;;;4.47;;
1839;SDS011;920;48.944;9.148;2023-08-17T02:56:16;5.10;;;4.60;;
1839;SDS011;920;48.944;9.148;2023-08-17T02:58:43;6.30;;;4.47;;
1839;SDS011;920;48.944;9.148;2023-08-17T03:01:09;5.43;;;4.70;;
1839;SDS011;920;48.944;9.148;2023-08-17T03:03:36;7.80;;;4.30;;
1839;SDS011;920;48.944;9.148;2023-08-17T03:06:04;4.80;;;4.30;;
1839;SDS011;920;48.944;9.148;2023-08-17T03:08:31;6.00;;;4.93;;
1839;SDS011;920;48.944;9.148;2023-08-17T03:10:58;4.43;;;4.00;;
1839;SDS011;920;48.944;9.148;2023-08-17T03:13:24;5.43;;;4.50;;
1839;SDS011;920;48.944;9.148;2023-08-17T03:15:51;5.70;;;4.77;;
1839;SDS011;920;48.944;9.148;2023-08-17T03:18:18;4.73;;;4.23;;
1839;SDS011;920;48.944;9.148;2023-08-17T03:20:45;4.20;;;3.80;;
1839;SDS011;920;48.944;9.148;2023-08-17T03:23:13;4.73;;;4.23;;
1839;SDS011;920;48.944;9.148;2023-08-17T03:25:40;4.87;;;4.47;;
1839;SDS011;920;48.944;9.148;2023-08-17T03:28:07;5.60;;;3.70;;
1839;SDS011;920;48.944;9.148;2023-08-17T03:30:34;7.03;;;4.40;;
1839;SDS011;920;48.944;9.148;2023-08-17T03:33:00;4.33;;;3.93;;
1839;SDS011;920;48.944;9.148;2023-08-17T03:35:29;5.47;;;4.50;;
1839;SDS011;920;48.944;9.148;2023-08-17T03:37:56;6.17;;;5.10;;
1839;SDS011;920;48.944;9.148;2023-08-17T03:40:24;7.73;;;4.83;;
1839;SDS011;920;48.944;9.148;2023-08-17T03:42:51;6.00;;;4.97;;
1839;SDS011;920;48.944;9.148;2023-08-17T03:45:18;6.20;;;5.43;;
1839;SDS011;920;48.944;9.148;2023-08-17T03:47:45;5.13;;;4.63;;
1839;SDS011;920;48.944;9.148;2023-08-17T03:50:11;5.73;;;4.80;;
1839;SDS011;920;48.944;9.148;2023-08-17T03:52:38;5.67;;;5.00;;
1839;SDS011;920;48.944;9.148;2023-08-17T03:55:05;5.30;;;4.80;;
1839;SDS011;920;48.944;9.148;2023-08-17T03:57:34;4.87;;;4.17;;
1839;SDS011;920;48.944;9.148;2023-08-17T04:00:01;8.23;;;4.60;;
1839;SDS011;920;48.944;9.148;2023-08-17T04:02:38;6.70;;;4.73;;
1839;SDS011;920;48.944;9.148;2023-08-17T04:05:06;4.67;;;4.13;;
1839;SDS011;920;48.944;9.148;2023-08-17T04:07:33;5.03;;;3.70;;
1839;SDS011;920;48.944;9.148;2023-08-17T04:10:00;5.20;;;4.40;;
1839;SDS011;920;48.944;9.148;2023-08-17T04:12:26;4.93;;;4.20;;
1839;SDS011;920;48.944;9.148;2023-08-17T04:14:54;4.43;;;4.00;;
1839;SDS011;920;48.944;9.148;2023-08-17T04:17:21;6.67;;;5.20;;
1839;SDS011;920;48.944;9.148;2023-08-17T04:19:48;4.73;;;4.23;;
1839;SDS011;920;48.944;9.148;2023-08-17T04:22:15;6.23;;;4.23;;
1839;SDS011;920;48.944;9.148;2023-08-17T04:24:42;7.40;;;4.67;;
1839;SDS011;920;48.944;9.148;2023-08-17T04:27:08;8.23;;;5.50;;
1839;SDS011;920;48.944;9.148;2023-08-17T04:29:37;6.80;;;6.10;;
1839;SDS011;920;48.944;9.148;2023-08-17T04:32:05;5.43;;;4.60;;
1839;SDS011;920;48.944;9.148;2023-08-17T04:34:33;4.97;;;4.10;;
1839;SDS011;920;48.944;9.148;2023-08-17T04:37:00;5.43;;;4.50;;
1839;SDS011;920;48.944;9.148;2023-08-17T04:39:27;5.07;;;4.07;;
1839;SDS011;920;48.944;9.148;2023-08-17T04:41:55;4.70;;;4.07;;
1839;SDS011;920;48.944;9.148;2023-08-17T04:44:27;5.10;;;4.60;;
1839;SDS011;920;48.944;9.148;2023-08-17T04:46:54;7.60;;;5.60;;
1839;SDS011;920;48.944;9.148;2023-08-17T04:49:22;7.67;;;5.50;;
1839;SDS011;920;48.944;9.148;2023-08-17T04:51:49;10.27;;;5.93;;
1839;SDS011;920;48.944;9.148;2023-08-17T04:54:16;7.10;;;5.90;;
1839;SDS011;920;48.944;9.148;2023-08-17T04:56:43;5.90;;;5.27;;
1839;SDS011;920;48.944;9.148;2023-08-17T04:59:09;9.87;;;5.47;;
1839;SDS011;920;48.944;9.148;2023-08-17T05:01:37;9.63;;;5.97;;
1839;SDS011;920;48.944;9.148;2023-08-17T05:04:04;8.00;;;5.80;;
1839;SDS011;920;48.944;9.148;2023-08-17T05:06:33;8.00;;;6.10;;
1839;SDS011;920;48.944;9.148;2023-08-17T05:09:00;7.03;;;5.70;;
1839;SDS011;920;48.944;9.148;2023-08-17T05:11:26;7.37;;;5.77;;
1839;SDS011;920;48.944;9.148;2023-08-17T05:13:53;7.27;;;5.40;;
1839;SDS011;920;48.944;9.148;2023-08-17T05:16:20;7.57;;;5.67;;
1839;SDS011;920;48.944;9.148;2023-08-17T05:18:47;8.47;;;6.30;;
1839;SDS011;920;48.944;9.148;2023-08-17T05:21:15;6.20;;;5.60;;
1839;SDS011;920;48.944;9.148;2023-08-17T05:23:43;7.90;;;5.30;;
1839;SDS011;920;48.944;9.148;2023-08-17T05:26:10;6.80;;;6.07;;
1839;SDS011;920;48.944;9.148;2023-08-17T05:28:37;8.83;;;6.53;;
1839;SDS011;920;48.944;9.148;2023-08-17T05:31:04;6.93;;;5.60;;
1839;SDS011;920;48.944;9.148;2023-08-17T05:33:35;7.10;;;6.00;;
1839;SDS011;920;48.944;9.148;2023-08-17T05:36:01;8.23;;;7.03;;
1839;SDS011;920;48.944;9.148;2023-08-17T05:38:28;8.57;;;7.53;;
1839;SDS011;920;48.944;9.148;2023-08-17T05:40:56;9.00;;;7.00;;
1839;SDS011;920;48.944;9.148;2023-08-17T05:43:24;9.33;;;7.60;;
1839;SDS011;920;48.944;9.148;2023-08-17T05:45:51;10.70;;;7.47;;
1839;SDS011;920;48.944;9.148;2023-08-17T05:48:18;8.63;;;6.77;;
1839;SDS011;920;48.944;9.148;2023-08-17T05:50:45;8.80;;;7.17;;
1839;SDS011;920;48.944;9.148;2023-08-17T05:53:12;7.37;;;6.37;;
1839;SDS011;920;48.944;9.148;2023-08-17T05:55:38;8.97;;;6.80;;
1839;SDS011;920;48.944;9.148;2023-08-17T05:58:07;8.17;;;6.80;;
1839;SDS011;920;48.944;9.148;2023-08-17T06:00:33;7.23;;;6.53;;
1839;SDS011;920;48.944;9.148;2023-08-17T06:03:00;8.40;;;6.60;;
1839;SDS011;920;48.944;9.148;2023-08-17T06:05:27;8.23;;;6.63;;
1839;SDS011;920;48.944;9.148;2023-08-17T06:07:54;8.13;;;6.10;;
1839;SDS011;920;48.944;9.148;2023-08-17T06:10:21;7.00;;;6.30;;
1839;SDS011;920;48.944;9.148;2023-08-17T06:12:50;7.00;;;6.00;;
1839;SDS011;920;48.944;9.148;2023-08-17T06:15:18;10.67;;;8.13;;
1839;SDS011;920;48.944;9.148;2023-08-17T06:17:45;8.13;;;6.67;;
1839;SDS011;920;48.944;9.148;2023-08-17T06:20:12;9.40;;;7.80;;
1839;SDS011;920;48.944;9.148;2023-08-17T06:22:39;9.40;;;7.80;;
1839;SDS011;920;48.944;9.148;2023-08-17T06:25:06;7.80;;;6.70;;
1839;SDS011;920;48.944;9.148;2023-08-17T06:27:34;9.07;;;7.37;;
1839;SDS011;920;48.944;9.148;2023-08-17T06:30:01;8.87;;;7.60;;
1839;SDS011;920;48.944;9.148;2023-08-17T06:32:29;8.93;;;7.80;;
1839;SDS011;920;48.944;9.148;2023-08-17T06:34:56;9.43;;;8.53;;
1839;SDS011;920;48.944;9.148;2023-08-17T06:37:23;8.23;;;7.43;;
1839;SDS011;920;48.944;9.148;2023-08-17T06:39:49;9.60;;;8.30;;
1839;SDS011;920;48.944;9.148;2023-08-17T06:42:16;8.77;;;7.87;;
1839;SDS011;920;48.944;9.148;2023-08-17T06:44:43;9.47;;;8.53;;
1839;SDS011;920;48.944;9.148;2023-08-17T06:47:10;9.50;;;8.60;;
1839;SDS011;920;48.944;9.148;2023-08-17T06:49:38;11.60;;;9.03;;
1839;SDS011;920;48.944;9.148;2023-08-17T06:52:05;9.87;;;8.87;;
1839;SDS011;920;48.944;9.148;2023-08-17T06:54:32;10.50;;;9.37;;
1839;SDS011;920;48.944;9.148;2023-08-17T06:56:58;9.07;;;8.17;;
1839;SDS011;920;48.944;9.148;2023-08-17T06:59:25;11.20;;;9.70;;
1839;SDS011;920;48.944;9.148;2023-08-17T07:01:52;11.90;;;9.40;;
1839;SDS011;920;48.944;9.148;2023-08-17T07:04:18;9.33;;;8.30;;
1839;SDS011;920;48.944;9.148;2023-08-17T07:06:46;10.23;;;9.30;;
1839;SDS011;920;48.944;9.148;2023-08-17T07:09:14;8.97;;;8.07;;
1839;SDS011;920;48.944;9.148;2023-08-17T07:11:41;9.80;;;8.80;;
1839;SDS011;920;48.944;9.148;2023-08-17T07:14:07;10.23;;;9.17;;
1839;SDS011;920;48.944;9.148;2023-08-17T07:16:34;11.90;;;9.73;;
1839;SDS011;920;48.944;9.148;2023-08-17T07:19:01;9.83;;;8.70;;
1839;SDS011;920;48.944;9.148;2023-08-17T07:21:29;9.80;;;8.90;;
1839;SDS011;920;48.944;9.148;2023-08-17T07:23:57;9.03;;;7.97;;
1839;SDS011;920;48.944;9.148;2023-08-17T07:26:24;7.23;;;6.20;;
1839;SDS011;920;48.944;9.148;2023-08-17T07:28:50;7.80;;;7.00;;
1839;SDS011;920;48.944;9.148;2023-08-17T07:31:17;8.77;;;6.57;;
1839;SDS011;920;48.944;9.148;2023-08-17T07:33:44;8.77;;;6.90;;
1839;SDS011;920;48.944;9.148;2023-08-17T07:36:10;8.47;;;7.63;;
1839;SDS011;920;48.944;9.148;2023-08-17T07:38:37;10.60;;;9.60;;
1839;SDS011;920;48.944;9.148;2023-08-17T07:41:05;11.73;;;10.63;;
1839;SDS011;920;48.944;9.148;2023-08-17T07:43:32;11.20;;;10.10;;
1839;SDS011;920;48.944;9.148;2023-08-17T07:45:58;10.53;;;9.53;;
1839;SDS011;920;48.944;9.148;2023-08-17T07:48:25;10.10;;;9.10;;
1839;SDS011;920;48.944;9.148;2023-08-17T07:50:52;10.63;;;9.63;;
1839;SDS011;920;48.944;9.148;2023-08-17T07:53:19;10.77;;;9.67;;
1839;SDS011;920;48.944;9.148;2023-08-17T07:55:46;10.47;;;9.47;;
1839;SDS011;920;48.944;9.148;2023-08-17T07:58:14;9.23;;;8.30;;
1839;SDS011;920;48.944;9.148;2023-08-17T08:00:40;9.57;;;8.57;;
1839;SDS011;920;48.944;9.148;2023-08-17T08:03:07;9.80;;;8.90;;
1839;SDS011;920;48.944;9.148;2023-08-17T08:05:34;10.07;;;8.80;;
1839;SDS011;920;48.944;9.148;2023-08-17T08:08:01;10.57;;;9.57;;
1839;SDS011;920;48.944;9.148;2023-08-17T08:10:28;10.40;;;9.33;;
1839;SDS011;920;48.944;9.148;2023-08-17T08:12:54;10.17;;;8.93;;
1839;SDS011;920;48.944;9.148;2023-08-17T08:15:23;10.50;;;9.43;;
1839;SDS011;920;48.944;9.148;2023-08-17T08:17:49;11.30;;;10.30;;
1839;SDS011;920;48.944;9.148;2023-08-17T08:20:16;10.80;;;9.77;;
1839;SDS011;920;48.944;9.148;2023-08-17T08:22:43;10.63;;;9.63;;
1839;SDS011;920;48.944;9.148;2023-08-17T08:25:09;11.03;;;9.93;;
1839;SDS011;920;48.944;9.148;2023-08-17T08:27:36;10.00;;;9.07;;
1839;SDS011;920;48.944;9.148;2023-08-17T08:30:03;9.50;;;8.60;;
1839;SDS011;920;48.944;9.148;2023-08-17T08:32:32;11.60;;;8.20;;
1839;SDS011;920;48.944;9.148;2023-08-17T08:34:59;9.77;;;8.77;;
1839;SDS011;920;48.944;9.148;2023-08-17T08:37:26;11.20;;;10.10;;
1839;SDS011;920;48.944;9.148;2023-08-17T08:39:53;11.00;;;9.90;;
1839;SDS011;920;48.944;9.148;2023-08-17T08:42:20;11.63;;;10.43;;
1839;SDS011;920;48.944;9.148;2023-08-17T08:44:48;12.43;;;11.23;;
1839;SDS011;920;48.944;9.148;2023-08-17T08:47:16;12.40;;;11.10;;
1839;SDS011;920;48.944;9.148;2023-08-17T08:49:47;10.70;;;9.60;;
1839;SDS011;920;48.944;9.148;2023-08-17T08:52:19;8.90;;;8.00;;
1839;SDS011;920;48.944;9.148;2023-08-17T08:54:46;9.67;;;8.77;;
1839;SDS011;920;48.944;9.148;2023-08-17T08:57:16;8.90;;;8.00;;
1839;SDS011;920;48.944;9.148;2023-08-17T08:59:44;10.00;;;9.00;;
1839;SDS011;920;48.944;9.148;2023-08-17T09:02:12;9.47;;;8.57;;
1839;SDS011;920;48.944;9.148;2023-08-17T09:04:41;9.90;;;8.90;;
1839;SDS011;920;48.944;9.148;2023-08-17T09:07:09;10.07;;;9.20;;
1839;SDS011;920;48.944;9.148;2023-08-17T09:09:37;10.20;;;9.10;;
1839;SDS011;920;48.944;9.148;2023-08-17T09:12:04;10.20;;;9.17;;
1839;SDS011;920;48.944;9.148;2023-08-17T09:14:33;9.17;;;8.30;;
1839;SDS011;920;48.944;9.148;2023-08-17T09:17:00;9.50;;;8.60;;
1839;SDS011;920;48.944;9.148;2023-08-17T09:19:27;10.03;;;9.20;;
1839;SDS011;920;48.944;9.148;2023-08-17T09:21:54;9.93;;;9.00;;
1839;SDS011;920;48.944;9.148;2023-08-17T09:24:22;10.70;;;9.60;;
1839;SDS011;920;48.944;9.148;2023-08-17T09:26:48;9.93;;;9.00;;
1839;SDS011;920;48.944;9.148;2023-08-17T09:29:16;10.10;;;9.20;;
1839;SDS011;920;48.944;9.148;2023-08-17T09:31:43;8.77;;;7.97;;
1839;SDS011;920;48.944;9.148;2023-08-17T09:34:10;9.87;;;8.53;;
1839;SDS011;920;48.944;9.148;2023-08-17T09:36:36;9.57;;;8.57;;
1839;SDS011;920;48.944;9.148;2023-08-17T09:39:03;9.00;;;8.20;;
1839;SDS011;920;48.944;9.148;2023-08-17T09:41:31;9.33;;;8.53;;
1839;SDS011;920;48.944;9.148;2023-08-17T09:44:04;9.93;;;8.90;;
1839;SDS011;920;48.944;9.148;2023-08-17T09:46:32;10.20;;;9.30;;
1839;SDS011;920;48.944;9.148;2023-08-17T09:49:01;10.30;;;9.17;;
1839;SDS011;920;48.944;9.148;2023-08-17T09:51:29;10.17;;;9.30;;
1839;SDS011;920;48.944;9.148;2023-08-17T09:53:56;11.53;;;9.80;;
1839;SDS011;920;48.944;9.148;2023-08-17T09:56:23;10.30;;;9.30;;
1839;SDS011;920;48.944;9.148;2023-08-17T09:58:51;10.70;;;9.60;;
1839;SDS011;920;48.944;9.148;2023-08-17T10:01:18;9.93;;;9.03;;
1839;SDS011;920;48.944;9.148;2023-08-17T10:03:45;10.10;;;9.17;;
1839;SDS011;920;48.944;9.148;2023-08-17T10:06:16;7.07;;;6.30;;
1839;SDS011;920;48.944;9.148;2023-08-17T10:08:45;8.57;;;7.57;;
1839;SDS011;920;48.944;9.148;2023-08-17T10:11:14;9.47;;;8.57;;
1839;SDS011;920;48.944;9.148;2023-08-17T10:13:43;9.70;;;8.67;;
1839;SDS011;920;48.944;9.148;2023-08-17T10:16:18;9.53;;;8.70;;
1839;SDS011;920;48.944;9.148;2023-08-17T10:18:50;8.73;;;7.83;;
1839;SDS011;920;48.944;9.148;2023-08-17T10:21:21;8.40;;;7.70;;
1839;SDS011;920;48.944;9.148;2023-08-17T10:23:50;7.57;;;6.90;;
1839;SDS011;920;48.944;9.148;2023-08-17T10:26:17;9.63;;;8.60;;
1839;SDS011;920;48.944;9.148;2023-08-17T10:28:44;9.27;;;8.47;;
1839;SDS011;920;48.944;9.148;2023-08-17T10:31:11;9.40;;;8.43;;
1839;SDS011;920;48.944;9.148;2023-08-17T10:33:39;8.30;;;7.50;;
1839;SDS011;920;48.944;9.148;2023-08-17T10:36:10;9.77;;;8.87;;
1839;SDS011;920;48.944;9.148;2023-08-17T10:38:37;8.53;;;7.83;;
1839;SDS011;920;48.944;9.148;2023-08-17T10:41:08;8.10;;;7.40;;
1839;SDS011;920;48.944;9.148;2023-08-17T10:43:35;8.60;;;7.80;;
1839;SDS011;920;48.944;9.148;2023-08-17T10:46:19;9.90;;;8.90;;
1839;SDS011;920;48.944;9.148;2023-08-17T10:48:47;10.10;;;9.20;;
1839;SDS011;920;48.944;9.148;2023-08-17T10:51:14;8.60;;;7.80;;
1839;SDS011;920;48.944;9.148;2023-08-17T10:53:43;10.40;;;9.40;;
1839;SDS011;920;48.944;9.148;2023-08-17T10:56:13;9.00;;;8.13;;
1839;SDS011;920;48.944;9.148;2023-08-17T10:58:42;9.30;;;8.50;;
1839;SDS011;920;48.944;9.148;2023-08-17T11:01:09;9.50;;;8.60;;
1839;SDS011;920;48.944;9.148;2023-08-17T11:03:36;8.77;;;8.07;;
1839;SDS011;920;48.944;9.148;2023-08-17T11:06:17;9.33;;;8.50;;
1839;SDS011;920;48.944;9.148;2023-08-17T11:08:51;8.50;;;7.80;;
1839;SDS011;920;48.944;9.148;2023-08-17T11:11:20;8.33;;;7.63;;
1839;SDS011;920;48.944;9.148;2023-08-17T11:13:47;8.07;;;7.37;;
1839;SDS011;920;48.944;9.148;2023-08-17T11:16:15;9.23;;;8.33;;
1839;SDS011;920;48.944;9.148;2023-08-17T11:18:44;8.00;;;7.30;;
1839;SDS011;920;48.944;9.148;2023-08-17T11:21:11;9.10;;;8.30;;
1839;SDS011;920;48.944;9.148;2023-08-17T11:23:41;8.07;;;7.37;;
1839;SDS011;920;48.944;9.148;2023-08-17T11:26:08;9.00;;;8.30;;
1839;SDS011;920;48.944;9.148;2023-08-17T11:28:35;7.00;;;6.40;;
1839;SDS011;920;48.944;9.148;2023-08-17T11:31:04;6.70;;;6.10;;
1839;SDS011;920;48.944;9.148;2023-08-17T11:33:32;6.13;;;5.63;;
1839;SDS011;920;48.944;9.148;2023-08-17T11:36:00;7.07;;;6.37;;
1839;SDS011;920;48.944;9.148;2023-08-17T11:38:29;6.37;;;5.87;;
1839;SDS011;920;48.944;9.148;2023-08-17T11:40:58;7.93;;;7.13;;
1839;SDS011;920;48.944;9.148;2023-08-17T11:43:25;7.50;;;6.80;;
1839;SDS011;920;48.944;9.148;2023-08-17T11:45:52;7.07;;;6.40;;
1839;SDS011;920;48.944;9.148;2023-08-17T11:48:19;7.27;;;6.40;;
1839;SDS011;920;48.944;9.148;2023-08-17T11:50:46;6.87;;;6.27;;
1839;SDS011;920;48.944;9.148;2023-08-17T11:53:13;7.60;;;6.80;;
1839;SDS011;920;48.944;9.148;2023-08-17T11:55:39;6.37;;;5.87;;
1839;SDS011;920;48.944;9.148;2023-08-17T11:58:08;6.00;;;5.40;;
1839;SDS011;920;48.944;9.148;2023-08-17T12:00:34;7.43;;;6.67;;
1839;SDS011;920;48.944;9.148;2023-08-17T12:03:02;11.60;;;6.90;;
1839;SDS011;920;48.944;9.148;2023-08-17T12:05:30;7.00;;;6.40;;
1839;SDS011;920;48.944;9.148;2023-08-17T12:07:57;6.50;;;5.90;;
1839;SDS011;920;48.944;9.148;2023-08-17T12:10:27;6.50;;;5.90;;
1839;SDS011;920;48.944;9.148;2023-08-17T12:12:57;6.63;;;6.10;;
1839;SDS011;920;48.944;9.148;2023-08-17T12:15:29;6.60;;;6.00;;
1839;SDS011;920;48.944;9.148;2023-08-17T12:17:58;5.87;;;5.37;;
1839;SDS011;920;48.944;9.148;2023-08-17T12:20:25;6.37;;;4.90;;
1839;SDS011;920;48.944;9.148;2023-08-17T12:22:52;5.47;;;4.90;;
1839;SDS011;920;48.944;9.148;2023-08-17T12:25:20;5.77;;;5.17;;
1839;SDS011;920;48.944;9.148;2023-08-17T12:27:47;5.37;;;4.87;;
1839;SDS011;920;48.944;9.148;2023-08-17T12:30:16;5.30;;;4.63;;
1839;SDS011;920;48.944;9.148;2023-08-17T12:32:52;4.83;;;4.43;;
1839;SDS011;920;48.944;9.148;2023-08-17T12:35:19;5.13;;;4.70;;
1839;SDS011;920;48.944;9.148;2023-08-17T12:37:46;5.20;;;4.70;;
1839;SDS011;920;48.944;9.148;2023-08-17T12:40:13;5.50;;;5.00;;
1839;SDS011;920;48.944;9.148;2023-08-17T12:42:41;5.90;;;5.40;;
1839;SDS011;920;48.944;9.148;2023-08-17T12:45:08;5.60;;;5.10;;
1839;SDS011;920;48.944;9.148;2023-08-17T12:47:35;5.80;;;5.30;;
1839;SDS011;920;48.944;9.148;2023-08-17T12:50:03;6.30;;;5.80;;
1839;SDS011;920;48.944;9.148;2023-08-17T12:52:30;6.20;;;5.60;;
1839;SDS011;920;48.944;9.148;2023-08-17T12:54:57;5.50;;;5.00;;
1839;SDS011;920;48.944;9.148;2023-08-17T12:57:24;5.80;;;5.20;;
1839;SDS011;920;48.944;9.148;2023-08-17T12:59:51;6.03;;;5.33;;
1839;SDS011;920;48.944;9.148;2023-08-17T13:02:19;6.50;;;5.90;;
1839;SDS011;920;48.944;9.148;2023-08-17T13:04:46;6.70;;;6.10;;
1839;SDS011;920;48.944;9.148;2023-08-17T13:07:14;6.63;;;6.03;;
1839;SDS011;920;48.944;9.148;2023-08-17T13:09:41;6.23;;;5.73;;
1839;SDS011;920;48.944;9.148;2023-08-17T13:12:07;6.37;;;5.83;;
1839;SDS011;920;48.944;9.148;2023-08-17T13:14:34;7.20;;;6.60;;
1839;SDS011;920;48.944;9.148;2023-08-17T13:17:01;7.10;;;6.40;;
1839;SDS011;920;48.944;9.148;2023-08-17T13:19:27;7.17;;;6.47;;
1839;SDS011;920;48.944;9.148;2023-08-17T13:21:54;7.30;;;6.70;;
1839;SDS011;920;48.944;9.148;2023-08-17T13:24:22;9.00;;;7.63;;
1839;SDS011;920;48.944;9.148;2023-08-17T13:26:49;7.70;;;7.10;;
1839;SDS011;920;48.944;9.148;2023-08-17T13:29:19;8.93;;;7.43;;
1839;SDS011;920;48.944;9.148;2023-08-17T13:31:46;8.43;;;7.50;;
1839;SDS011;920;48.944;9.148;2023-08-17T13:34:13;7.83;;;7.17;;
1839;SDS011;920;48.944;9.148;2023-08-17T13:36:39;6.70;;;6.20;;
1839;SDS011;920;48.944;9.148;2023-08-17T13:39:06;8.00;;;7.23;;
1839;SDS011;920;48.944;9.148;2023-08-17T13:41:34;9.07;;;7.93;;
1839;SDS011;920;48.944;9.148;2023-08-17T13:44:01;8.50;;;7.80;;
1839;SDS011;920;48.944;9.148;2023-08-17T13:46:28;8.57;;;7.87;;
1839;SDS011;920;48.944;9.148;2023-08-17T13:48:55;8.87;;;8.07;;
1839;SDS011;920;48.944;9.148;2023-08-17T13:51:21;8.40;;;7.70;;
1839;SDS011;920;48.944;9.148;2023-08-17T13:53:48;9.57;;;8.57;;
1839;SDS011;920;48.944;9.148;2023-08-17T13:56:15;9.00;;;8.20;;
1839;SDS011;920;48.944;9.148;2023-08-17T13:58:44;9.50;;;8.60;;
1839;SDS011;920;48.944;9.148;2023-08-17T14:01:11;10.17;;;9.27;;
1839;SDS011;920;48.944;9.148;2023-08-17T14:03:37;8.83;;;8.03;;
1839;SDS011;920;48.944;9.148;2023-08-17T14:06:04;9.87;;;9.07;;
1839;SDS011;920;48.944;9.148;2023-08-17T14:08:31;9.10;;;8.30;;
1839;SDS011;920;48.944;9.148;2023-08-17T14:10:58;8.60;;;7.80;;
1839;SDS011;920;48.944;9.148;2023-08-17T14:13:25;9.03;;;7.73;;
1839;SDS011;920;48.944;9.148;2023-08-17T14:15:53;8.57;;;7.77;;
1839;SDS011;920;48.944;9.148;2023-08-17T14:18:21;9.80;;;8.30;;
1839;SDS011;920;48.944;9.148;2023-08-17T14:20:48;8.30;;;7.57;;
1839;SDS011;920;48.944;9.148;2023-08-17T14:23:14;7.80;;;7.20;;
1839;SDS011;920;48.944;9.148;2023-08-17T14:25:41;8.00;;;7.30;;
1839;SDS011;920;48.944;9.148;2023-08-17T14:28:08;7.63;;;6.60;;
1839;SDS011;920;48.944;9.148;2023-08-17T14:30:34;8.93;;;8.17;;
1839;SDS011;920;48.944;9.148;2023-08-17T14:33:03;7.70;;;7.00;;
1839;SDS011;920;48.944;9.148;2023-08-17T14:35:30;7.87;;;7.13;;
1839;SDS011;920;48.944;9.148;2023-08-17T14:37:56;7.50;;;6.90;;
1839;SDS011;920;48.944;9.148;2023-08-17T14:40:26;7.17;;;6.57;;
1839;SDS011;920;48.944;9.148;2023-08-17T14:42:52;7.83;;;7.13;;
1839;SDS011;920;48.944;9.148;2023-08-17T14:45:19;7.90;;;7.17;;
1839;SDS011;920;48.944;9.148;2023-08-17T14:47:46;7.73;;;7.03;;
1839;SDS011;920;48.944;9.148;2023-08-17T14:50:14;7.97;;;7.27;;
1839;SDS011;920;48.944;9.148;2023-08-17T14:52:41;8.50;;;7.80;;
1839;SDS011;920;48.944;9.148;2023-08-17T14:55:08;8.10;;;7.40;;
1839;SDS011;920;48.944;9.148;2023-08-17T14:57:35;7.17;;;6.50;;
1839;SDS011;920;48.944;9.148;2023-08-17T15:00:02;7.60;;;6.90;;
1839;SDS011;920;48.944;9.148;2023-08-17T15:02:29;7.53;;;6.83;;
1839;SDS011;920;48.944;9.148;2023-08-17T15:04:56;7.97;;;7.30;;
1839;SDS011;920;48.944;9.148;2023-08-17T15:07:24;7.67;;;6.97;;
1839;SDS011;920;48.944;9.148;2023-08-17T15:09:51;8.73;;;8.03;;
1839;SDS011;920;48.944;9.148;2023-08-17T15:12:18;7.33;;;6.73;;
1839;SDS011;920;48.944;9.148;2023-08-17T15:14:45;7.50;;;6.80;;
1839;SDS011;920;48.944;9.148;2023-08-17T15:17:11;7.87;;;7.13;;
1839;SDS011;920;48.944;9.148;2023-08-17T15:19:38;6.70;;;6.10;;
1839;SDS011;920;48.944;9.148;2023-08-17T15:22:05;8.37;;;6.50;;
1839;SDS011;920;48.944;9.148;2023-08-17T15:24:33;7.33;;;6.27;;
1839;SDS011;920;48.944;9.148;2023-08-17T15:27:00;7.43;;;6.60;;
1839;SDS011;920;48.944;9.148;2023-08-17T15:29:26;7.60;;;6.90;;